createdAt,value
2017-11-26T00:02:06.613Z,4.85
2017-11-26T00:04:34.475Z,5.90
2017-11-26T00:07:02.342Z,4.87
2017-11-26T00:09:30.210Z,5.15
2017-11-26T00:11:58.077Z,5.65
2017-11-26T00:14:25.874Z,5.93
2017-11-26T00:16:54.529Z,6.40
2017-11-26T00:19:22.396Z,5.50
2017-11-26T00:21:50.264Z,6.28
2017-11-26T00:24:18.133Z,6.85
2017-11-26T00:26:46.003Z,6.45
2017-11-26T00:29:15.203Z,6.22
2017-11-26T00:31:43.067Z,6.95
2017-11-26T00:34:11.036Z,7.00
2017-11-26T00:36:38.906Z,6.72
2017-11-26T00:39:06.775Z,6.20
2017-11-26T00:41:34.641Z,5.65
2017-11-26T00:44:02.509Z,5.62
2017-11-26T00:46:30.373Z,5.32
2017-11-26T00:48:58.240Z,6.78
2017-11-26T00:51:26.104Z,5.80
2017-11-26T00:53:53.973Z,5.87
2017-11-26T00:56:21.840Z,6.90
2017-11-26T00:58:49.707Z,5.70
2017-11-26T01:01:17.574Z,5.85
2017-11-26T01:03:46.159Z,5.57
2017-11-26T01:06:14.041Z,5.65
2017-11-26T01:08:46.886Z,5.57
2017-11-26T01:11:18.674Z,6.00
2017-11-26T01:13:53.157Z,6.03
2017-11-26T01:16:27.438Z,6.22
2017-11-26T01:19:02.068Z,5.78
2017-11-26T01:21:36.379Z,5.43
2017-11-26T01:24:11.415Z,5.57
2017-11-26T01:29:43.278Z,6.62
2017-11-26T01:32:13.074Z,5.95
2017-11-26T01:34:40.953Z,5.75
2017-11-26T01:37:08.818Z,6.37
2017-11-26T01:39:36.686Z,5.78
2017-11-26T01:42:07.114Z,6.60
2017-11-26T01:44:39.293Z,6.68
2017-11-26T01:47:11.593Z,6.62
2017-11-26T01:49:44.354Z,7.75
2017-11-26T01:52:17.174Z,7.12
2017-11-26T01:54:49.541Z,7.82
2017-11-26T01:57:22.839Z,10.90
2017-11-26T01:59:55.740Z,9.13
2017-11-26T02:02:28.070Z,8.57
2017-11-26T02:05:01.035Z,6.50
2017-11-26T02:07:33.754Z,9.60
2017-11-26T02:10:06.964Z,7.30
2017-11-26T02:12:37.865Z,5.62
2017-11-26T02:15:08.692Z,5.80
2017-11-26T02:17:40.864Z,5.57
2017-11-26T02:20:12.534Z,5.00
2017-11-26T02:22:43.954Z,7.18
2017-11-26T02:25:15.710Z,6.32
2017-11-26T02:27:47.595Z,6.87
2017-11-26T02:30:19.443Z,5.80
2017-11-26T02:33:03.066Z,5.28
2017-11-26T02:35:43.016Z,5.57
2017-11-26T02:38:14.453Z,5.43
2017-11-26T02:40:46.004Z,5.28
2017-11-26T02:43:17.297Z,6.35
2017-11-26T02:45:47.237Z,6.68
2017-11-26T02:48:18.194Z,5.95
2017-11-26T02:50:47.972Z,9.73
2017-11-26T02:53:16.629Z,15.45
2017-11-26T02:55:44.496Z,6.53
2017-11-26T02:58:12.363Z,9.95
2017-11-26T03:00:40.229Z,7.55
2017-11-26T03:03:08.097Z,6.80
2017-11-26T03:05:35.965Z,9.55
2017-11-26T03:08:03.832Z,6.40
2017-11-26T03:10:31.699Z,5.65
2017-11-26T03:12:59.566Z,5.87
2017-11-26T03:15:27.445Z,6.45
2017-11-26T03:17:56.121Z,5.80
2017-11-26T03:20:23.988Z,5.68
2017-11-26T03:22:51.856Z,6.35
2017-11-26T03:25:19.723Z,5.55
2017-11-26T03:27:47.588Z,5.07
2017-11-26T03:30:15.563Z,5.22
2017-11-26T03:32:43.426Z,5.65
2017-11-26T03:35:11.294Z,5.82
2017-11-26T03:37:39.160Z,4.93
2017-11-26T03:40:07.037Z,4.97
2017-11-26T03:42:35.003Z,5.40
2017-11-26T03:45:02.872Z,6.00
2017-11-26T03:47:30.742Z,5.40
2017-11-26T03:49:58.601Z,5.25
2017-11-26T03:52:26.485Z,5.70
2017-11-26T03:54:54.339Z,5.40
2017-11-26T03:57:22.207Z,6.37
2017-11-26T03:59:50.071Z,6.05
2017-11-26T04:02:17.938Z,5.37
2017-11-26T04:04:45.803Z,5.68
2017-11-26T04:07:13.671Z,5.50
2017-11-26T04:09:41.540Z,5.40
2017-11-26T04:12:09.405Z,6.07
2017-11-26T04:14:37.273Z,6.00
2017-11-26T04:17:05.143Z,5.72
2017-11-26T04:19:33.016Z,5.28
2017-11-26T04:22:00.891Z,5.87
2017-11-26T04:24:28.755Z,5.40
2017-11-26T04:26:57.431Z,5.03
2017-11-26T04:29:25.296Z,5.72
2017-11-26T04:31:53.164Z,5.20
2017-11-26T04:34:21.030Z,5.10
2017-11-26T04:36:48.899Z,6.00
2017-11-26T04:39:16.691Z,5.85
2017-11-26T04:41:44.530Z,5.35
2017-11-26T04:44:12.398Z,5.55
2017-11-26T04:46:40.265Z,5.72
2017-11-26T04:49:08.133Z,5.65
2017-11-26T04:51:36.000Z,5.45
2017-11-26T04:54:03.867Z,5.87
2017-11-26T04:56:31.734Z,6.12
2017-11-26T04:58:59.601Z,5.65
2017-11-26T05:01:27.472Z,6.05
2017-11-26T05:03:55.337Z,6.57
2017-11-26T05:06:23.209Z,5.22
2017-11-26T05:08:51.072Z,5.90
2017-11-26T05:11:18.879Z,6.40
2017-11-26T05:13:47.522Z,5.20
2017-11-26T05:16:15.390Z,6.30
2017-11-26T05:18:43.258Z,6.15
2017-11-26T05:21:11.124Z,6.30
2017-11-26T05:23:38.992Z,6.93
2017-11-26T05:26:06.859Z,6.62
2017-11-26T05:28:34.727Z,5.40
2017-11-26T05:31:02.592Z,5.70
2017-11-26T05:33:30.462Z,6.12
2017-11-26T05:35:58.330Z,5.25
2017-11-26T05:38:26.201Z,5.12
2017-11-26T05:40:54.064Z,5.10
2017-11-26T05:43:21.931Z,5.55
2017-11-26T05:45:49.797Z,5.07
2017-11-26T05:48:17.665Z,6.90
2017-11-26T05:50:45.532Z,6.55
2017-11-26T05:53:13.400Z,7.15
2017-11-26T05:55:41.267Z,6.12
2017-11-26T05:58:09.071Z,6.45
2017-11-26T06:00:37.718Z,6.97
2017-11-26T06:03:05.585Z,6.70
2017-11-26T06:05:33.490Z,6.35
2017-11-26T06:08:02.140Z,7.35
2017-11-26T06:10:30.007Z,7.28
2017-11-26T06:12:57.882Z,9.10
2017-11-26T06:15:25.741Z,8.05
2017-11-26T06:17:53.610Z,7.10
2017-11-26T06:20:21.477Z,11.82
2017-11-26T06:22:49.343Z,9.73
2017-11-26T06:25:17.210Z,9.20
2017-11-26T06:27:45.077Z,10.65
2017-11-26T06:30:12.945Z,9.50
2017-11-26T06:32:40.812Z,10.50
2017-11-26T06:35:08.679Z,10.88
2017-11-26T06:37:36.548Z,6.82
2017-11-26T06:40:04.414Z,8.55
2017-11-26T06:42:32.282Z,8.20
2017-11-26T06:45:00.149Z,8.77
2017-11-26T06:47:28.016Z,7.30
2017-11-26T06:49:55.886Z,6.32
2017-11-26T06:52:23.751Z,5.82
2017-11-26T06:54:51.619Z,5.82
2017-11-26T06:57:19.495Z,4.93
2017-11-26T06:59:47.358Z,5.97
2017-11-26T07:02:15.430Z,6.75
2017-11-26T07:04:43.292Z,6.30
2017-11-26T07:07:11.266Z,6.15
2017-11-26T07:09:39.136Z,5.15
2017-11-26T07:12:07.105Z,5.60
2017-11-26T07:14:34.972Z,6.10
2017-11-26T07:17:02.834Z,6.20
2017-11-26T07:19:30.701Z,5.37
2017-11-26T07:21:58.569Z,5.93
2017-11-26T07:24:26.439Z,7.22
2017-11-26T07:26:54.305Z,6.97
2017-11-26T07:29:22.172Z,6.32
2017-11-26T07:31:50.041Z,5.93
2017-11-26T07:34:18.009Z,6.35
2017-11-26T07:36:45.874Z,6.65
2017-11-26T07:39:13.742Z,6.93
2017-11-26T07:41:41.608Z,7.45
2017-11-26T07:44:09.887Z,6.85
2017-11-26T07:46:43.221Z,5.93
2017-11-26T07:49:14.674Z,6.80
2017-11-26T07:51:42.602Z,6.47
2017-11-26T07:54:10.488Z,6.18
2017-11-26T07:56:39.155Z,6.30
2017-11-26T07:59:07.024Z,6.28
2017-11-26T08:01:34.894Z,5.22
2017-11-26T08:04:02.761Z,7.20
2017-11-26T08:06:30.624Z,5.97
2017-11-26T08:08:58.696Z,5.50
2017-11-26T08:11:26.556Z,5.82
2017-11-26T08:13:55.295Z,6.85
2017-11-26T08:16:23.937Z,6.25
2017-11-26T08:18:51.808Z,5.57
2017-11-26T08:21:19.672Z,6.72
2017-11-26T08:23:47.543Z,6.28
2017-11-26T08:26:15.422Z,5.30
2017-11-26T08:28:43.274Z,6.15
2017-11-26T08:31:11.895Z,5.80
2017-11-26T08:33:40.647Z,5.00
2017-11-26T08:36:08.514Z,5.65
2017-11-26T08:38:36.380Z,6.78
2017-11-26T08:41:04.249Z,6.45
2017-11-26T08:43:32.116Z,5.30
2017-11-26T08:45:59.985Z,5.45
2017-11-26T08:48:27.748Z,5.20
2017-11-26T08:50:55.620Z,4.95
2017-11-26T08:53:23.483Z,5.25
2017-11-26T08:55:51.367Z,4.93
2017-11-26T08:58:19.320Z,5.90
2017-11-26T09:00:47.187Z,5.80
2017-11-26T09:03:15.054Z,5.20
2017-11-26T09:05:42.924Z,5.93
2017-11-26T09:08:11.404Z,5.12
2017-11-26T09:10:39.273Z,5.10
2017-11-26T09:13:07.138Z,5.35
2017-11-26T09:15:34.904Z,4.95
2017-11-26T09:18:02.669Z,6.25
2017-11-26T09:20:30.536Z,4.80
2017-11-26T09:22:58.403Z,5.25
2017-11-26T09:25:26.269Z,4.95
2017-11-26T09:27:54.137Z,6.07
2017-11-26T09:30:22.005Z,4.93
2017-11-26T09:32:49.872Z,5.90
2017-11-26T09:35:17.739Z,5.65
2017-11-26T09:37:45.606Z,5.37
2017-11-26T09:40:13.474Z,5.00
2017-11-26T09:42:41.341Z,5.45
2017-11-26T09:45:09.208Z,5.75
2017-11-26T09:47:37.076Z,5.43
2017-11-26T09:50:04.943Z,5.18
2017-11-26T09:52:32.810Z,5.32
2017-11-26T09:55:00.678Z,5.53
2017-11-26T09:57:28.552Z,5.70
2017-11-26T09:59:57.129Z,6.75
2017-11-26T10:02:24.997Z,5.60
2017-11-26T10:04:52.865Z,5.25
2017-11-26T10:07:20.741Z,6.72
2017-11-26T10:09:48.598Z,4.75
2017-11-26T10:12:16.478Z,4.62
2017-11-26T10:14:44.340Z,4.35
2017-11-26T10:17:12.211Z,4.05
2017-11-26T10:19:40.068Z,3.70
2017-11-26T10:22:07.941Z,3.97
2017-11-26T10:24:35.805Z,3.62
2017-11-26T10:27:03.673Z,3.50
2017-11-26T10:29:31.540Z,3.65
2017-11-26T10:31:59.406Z,3.22
2017-11-26T10:34:27.274Z,3.78
2017-11-26T10:36:55.140Z,2.55
2017-11-26T10:39:23.006Z,3.50
2017-11-26T10:41:50.873Z,3.72
2017-11-26T10:44:18.740Z,3.30
2017-11-26T10:46:46.709Z,3.00
2017-11-26T10:49:14.549Z,3.70
2017-11-26T10:51:42.446Z,4.15
2017-11-26T10:54:10.313Z,3.33
2017-11-26T10:56:38.283Z,3.53
2017-11-26T10:59:06.149Z,4.28
2017-11-26T11:01:34.019Z,3.60
2017-11-26T11:04:01.993Z,3.62
2017-11-26T11:06:29.854Z,4.30
2017-11-26T11:08:57.720Z,3.92
2017-11-26T11:11:25.588Z,3.40
2017-11-26T11:13:53.456Z,3.40
2017-11-26T11:16:21.324Z,3.30
2017-11-26T11:18:49.292Z,3.40
2017-11-26T11:21:17.160Z,3.95
2017-11-26T11:23:45.129Z,3.15
2017-11-26T11:26:13.000Z,3.33
2017-11-26T11:28:40.865Z,3.37
2017-11-26T11:31:08.732Z,3.00
2017-11-26T11:33:36.598Z,3.33
2017-11-26T11:36:04.568Z,3.37
2017-11-26T11:38:32.437Z,2.72
2017-11-26T11:41:00.303Z,2.45
2017-11-26T11:43:28.172Z,3.17
2017-11-26T11:45:56.044Z,4.45
2017-11-26T11:48:23.784Z,5.25
2017-11-26T11:50:51.596Z,25.17
2017-11-26T11:53:19.379Z,30.88
2017-11-26T11:55:48.020Z,10.70
2017-11-26T11:58:15.927Z,16.37
2017-11-26T12:00:44.677Z,7.87
2017-11-26T12:03:12.647Z,4.65
2017-11-26T12:05:40.519Z,6.97
2017-11-26T12:08:08.381Z,6.00
2017-11-26T12:10:36.349Z,8.73
2017-11-26T12:13:04.319Z,6.20
2017-11-26T12:15:32.290Z,3.60
2017-11-26T12:18:00.157Z,3.70
2017-11-26T12:20:28.024Z,5.07
2017-11-26T12:22:56.005Z,3.15
2017-11-26T12:25:24.682Z,4.05
2017-11-26T12:27:52.753Z,3.70
2017-11-26T12:30:21.921Z,3.22
2017-11-26T12:32:50.643Z,3.60
2017-11-26T12:35:18.609Z,3.97
2017-11-26T12:37:46.475Z,3.70
2017-11-26T12:40:14.444Z,3.75
2017-11-26T12:42:42.311Z,3.50
2017-11-26T12:45:11.670Z,3.45
2017-11-26T12:47:39.582Z,4.80
2017-11-26T12:50:07.458Z,3.72
2017-11-26T12:52:35.422Z,3.75
2017-11-26T12:55:03.390Z,4.15
2017-11-26T12:57:31.359Z,4.55
2017-11-26T12:59:59.225Z,4.95
2017-11-26T13:02:27.027Z,10.10
2017-11-26T13:04:55.579Z,6.90
2017-11-26T13:07:23.350Z,5.40
2017-11-26T13:09:51.176Z,4.37
2017-11-26T13:12:19.178Z,3.78
2017-11-26T13:14:47.044Z,4.30
2017-11-26T13:17:14.917Z,4.43
2017-11-26T13:19:42.881Z,4.70
2017-11-26T13:22:10.850Z,6.18
2017-11-26T13:24:38.828Z,4.80
2017-11-26T13:27:06.622Z,4.72
2017-11-26T13:29:35.187Z,5.20
2017-11-26T13:32:02.980Z,4.72
2017-11-26T13:34:30.803Z,4.30
2017-11-26T13:36:58.624Z,3.70
2017-11-26T13:39:26.438Z,3.60
2017-11-26T13:41:54.302Z,3.15
2017-11-26T13:44:22.118Z,4.05
2017-11-26T13:46:49.919Z,4.47
2017-11-26T13:49:17.707Z,3.20
2017-11-26T13:51:45.681Z,3.58
2017-11-26T13:54:13.640Z,4.90
2017-11-26T13:56:41.505Z,3.70
2017-11-26T13:59:09.371Z,2.92
2017-11-26T14:01:37.239Z,4.87
2017-11-26T14:04:05.041Z,4.00
2017-11-26T14:06:33.691Z,3.15
2017-11-26T14:09:01.557Z,5.20
2017-11-26T14:11:29.528Z,3.17
2017-11-26T14:13:57.497Z,3.10
2017-11-26T14:16:25.391Z,3.47
2017-11-26T14:18:53.437Z,2.30
2017-11-26T14:21:23.461Z,2.80
2017-11-26T14:23:54.308Z,3.50
2017-11-26T14:26:24.695Z,3.75
2017-11-26T14:28:54.557Z,2.95
2017-11-26T14:31:22.477Z,3.00
2017-11-26T14:33:53.114Z,2.58
2017-11-26T14:36:23.567Z,3.30
2017-11-26T14:38:54.064Z,2.55
2017-11-26T14:41:21.960Z,2.80
2017-11-26T14:43:49.837Z,2.40
2017-11-26T14:46:17.693Z,2.60
2017-11-26T14:48:45.560Z,2.70
2017-11-26T14:51:13.428Z,2.40
2017-11-26T14:53:41.296Z,2.60
2017-11-26T14:56:09.162Z,2.30
2017-11-26T14:58:37.031Z,2.87
2017-11-26T15:01:04.897Z,2.50
2017-11-26T15:03:32.765Z,3.95
2017-11-26T15:06:00.631Z,2.20
2017-11-26T15:08:28.500Z,2.67
2017-11-26T15:10:56.366Z,2.95
2017-11-26T15:13:24.336Z,3.05
2017-11-26T15:15:52.203Z,2.42
2017-11-26T15:18:19.999Z,2.53
2017-11-26T15:20:48.757Z,2.60
2017-11-26T15:23:16.625Z,3.08
2017-11-26T15:25:44.492Z,3.03
2017-11-26T15:28:12.359Z,2.47
2017-11-26T15:30:40.237Z,2.72
2017-11-26T15:33:08.195Z,2.55
2017-11-26T15:35:36.068Z,3.17
2017-11-26T15:38:03.933Z,2.70
2017-11-26T15:40:31.799Z,2.97
2017-11-26T15:42:59.768Z,2.90
2017-11-26T15:45:27.609Z,3.00
2017-11-26T15:47:55.505Z,3.20
2017-11-26T15:50:23.471Z,3.15
2017-11-26T15:52:51.348Z,3.37
2017-11-26T15:55:19.311Z,2.80
2017-11-26T15:57:47.281Z,3.47
2017-11-26T16:00:21.906Z,3.25
2017-11-26T16:02:49.780Z,12.80
2017-11-26T16:05:17.672Z,8.55
2017-11-26T16:07:46.428Z,34.47
2017-11-26T16:10:14.397Z,48.53
2017-11-26T16:12:42.265Z,6.62
2017-11-26T16:15:10.132Z,4.97
2017-11-26T16:17:38.001Z,5.30
2017-11-26T16:20:05.971Z,3.37
2017-11-26T16:22:33.840Z,3.72
2017-11-26T16:25:01.708Z,3.85
2017-11-26T16:27:29.674Z,3.62
2017-11-26T16:29:57.577Z,4.12
2017-11-26T16:32:26.227Z,3.10
2017-11-26T16:34:54.197Z,3.08
2017-11-26T16:37:22.064Z,4.25
2017-11-26T16:39:49.934Z,3.12
2017-11-26T16:42:17.916Z,3.10
2017-11-26T16:44:45.872Z,3.22
2017-11-26T16:47:13.846Z,3.97
2017-11-26T16:49:41.814Z,3.53
2017-11-26T16:52:09.683Z,3.50
2017-11-26T16:54:37.546Z,3.90
2017-11-26T16:57:05.519Z,3.25
2017-11-26T16:59:33.487Z,3.47
2017-11-26T17:02:01.458Z,3.60
2017-11-26T17:04:29.323Z,3.40
2017-11-26T17:06:57.192Z,3.03
2017-11-26T17:09:25.160Z,3.42
2017-11-26T17:11:53.128Z,3.90
2017-11-26T17:14:21.098Z,3.33
2017-11-26T17:16:48.965Z,3.90
2017-11-26T17:19:16.836Z,3.37
2017-11-26T17:21:44.710Z,5.50
2017-11-26T17:24:12.669Z,3.83
2017-11-26T17:26:40.538Z,3.97
2017-11-26T17:29:08.405Z,4.68
2017-11-26T17:31:36.262Z,4.22
2017-11-26T17:34:04.139Z,3.92
2017-11-26T17:36:32.013Z,3.95
2017-11-26T17:38:59.874Z,4.30
2017-11-26T17:41:27.846Z,4.03
2017-11-26T17:43:55.817Z,4.72
2017-11-26T17:46:29.058Z,5.12
2017-11-26T17:48:57.794Z,5.78
2017-11-26T17:51:29.409Z,4.68
2017-11-26T17:54:02.018Z,5.22
2017-11-26T17:56:33.578Z,4.80
2017-11-26T17:59:05.466Z,5.10
2017-11-26T18:01:35.093Z,4.10
2017-11-26T18:04:08.799Z,5.47
2017-11-26T18:06:41.078Z,4.28
2017-11-26T18:09:10.585Z,5.12
2017-11-26T18:11:43.290Z,4.78
2017-11-26T18:14:12.898Z,4.10
2017-11-26T18:16:42.804Z,4.65
2017-11-26T18:19:12.546Z,4.32
2017-11-26T18:21:42.279Z,4.22
2017-11-26T18:24:11.941Z,5.05
2017-11-26T18:26:44.682Z,5.43
2017-11-26T18:29:14.550Z,4.43
2017-11-26T18:31:48.499Z,5.35
2017-11-26T18:34:16.871Z,5.28
2017-11-26T18:36:50.429Z,5.78
2017-11-26T18:39:21.869Z,4.75
2017-11-26T18:41:53.008Z,5.22
2017-11-26T18:44:23.336Z,5.15
2017-11-26T18:46:52.707Z,4.85
2017-11-26T18:49:25.197Z,4.37
2017-11-26T18:51:53.327Z,4.20
2017-11-26T18:54:21.193Z,4.37
2017-11-26T18:56:49.061Z,4.80
2017-11-26T18:59:16.927Z,5.47
2017-11-26T19:01:44.801Z,5.97
2017-11-26T19:04:12.662Z,4.43
2017-11-26T19:06:40.529Z,5.45
2017-11-26T19:09:08.398Z,5.05
2017-11-26T19:11:37.187Z,5.22
2017-11-26T19:14:05.053Z,5.00
2017-11-26T19:16:32.925Z,4.50
2017-11-26T19:19:00.890Z,4.07
2017-11-26T19:21:28.767Z,4.35
2017-11-26T19:23:56.625Z,4.20
2017-11-26T19:26:24.493Z,3.80
2017-11-26T19:28:52.359Z,5.20
2017-11-26T19:31:20.228Z,3.58
2017-11-26T19:33:48.095Z,3.67
2017-11-26T19:36:15.888Z,4.00
2017-11-26T19:38:43.829Z,4.30
2017-11-26T19:41:11.803Z,4.07
2017-11-26T19:43:39.669Z,3.80
2017-11-26T19:46:07.636Z,3.85
2017-11-26T19:48:35.503Z,5.05
2017-11-26T19:51:03.371Z,3.45
2017-11-26T19:53:31.238Z,4.53
2017-11-26T19:55:59.208Z,3.28
2017-11-26T19:58:37.007Z,4.05
2017-11-26T20:01:05.079Z,3.95
2017-11-26T20:03:32.954Z,3.80
2017-11-26T20:06:00.824Z,4.57
2017-11-26T20:08:28.684Z,3.22
2017-11-26T20:10:56.556Z,3.30
2017-11-26T20:13:24.427Z,3.80
2017-11-26T20:15:52.393Z,3.90
2017-11-26T20:18:20.257Z,4.60
2017-11-26T20:20:48.131Z,4.03
2017-11-26T20:23:15.888Z,3.30
2017-11-26T20:25:43.753Z,3.50
2017-11-26T20:28:11.620Z,3.67
2017-11-26T20:30:39.487Z,3.78
2017-11-26T20:33:07.354Z,3.20
2017-11-26T20:35:35.224Z,4.03
2017-11-26T20:38:03.191Z,3.58
2017-11-26T20:40:31.059Z,3.47
2017-11-26T20:42:58.927Z,3.50
2017-11-26T20:45:26.798Z,3.65
2017-11-26T20:47:54.661Z,4.32
2017-11-26T20:50:22.528Z,4.35
2017-11-26T20:52:50.323Z,4.00
2017-11-26T20:55:18.160Z,3.72
2017-11-26T20:57:46.028Z,4.87
2017-11-26T21:00:13.894Z,5.85
2017-11-26T21:02:41.762Z,6.20
2017-11-26T21:05:09.659Z,5.12
2017-11-26T21:07:37.504Z,4.15
2017-11-26T21:10:05.365Z,4.70
2017-11-26T21:12:33.232Z,4.80
2017-11-26T21:15:01.104Z,5.07
2017-11-26T21:17:28.966Z,4.47
2017-11-26T21:19:56.835Z,4.93
2017-11-26T21:22:24.706Z,4.75
2017-11-26T21:24:52.673Z,4.90
2017-11-26T21:27:20.537Z,5.65
2017-11-26T21:29:48.409Z,4.78
2017-11-26T21:32:16.273Z,5.03
2017-11-26T21:34:44.141Z,4.93
2017-11-26T21:37:12.008Z,4.60
2017-11-26T21:39:39.874Z,5.62
2017-11-26T21:42:07.670Z,5.95
2017-11-26T21:44:36.327Z,5.65
2017-11-26T21:47:04.193Z,6.35
2017-11-26T21:49:32.062Z,5.03
2017-11-26T21:51:59.929Z,5.35
2017-11-26T21:54:27.747Z,5.35
2017-11-26T21:56:55.564Z,4.95
2017-11-26T21:59:23.429Z,4.55
2017-11-26T22:01:51.296Z,5.50
2017-11-26T22:04:19.163Z,5.20
2017-11-26T22:06:47.029Z,5.10
2017-11-26T22:09:14.898Z,5.03
2017-11-26T22:11:42.765Z,6.30
2017-11-26T22:14:10.631Z,4.93
2017-11-26T22:16:38.498Z,5.97
2017-11-26T22:19:06.365Z,5.37
2017-11-26T22:21:34.233Z,6.12
2017-11-26T22:24:02.101Z,4.12
2017-11-26T22:26:29.968Z,4.40
2017-11-26T22:29:03.641Z,5.47
2017-11-26T22:31:31.540Z,5.30
2017-11-26T22:33:59.408Z,5.35
2017-11-26T22:36:27.275Z,6.03
2017-11-26T22:38:55.142Z,6.70
2017-11-26T22:41:23.011Z,6.30
2017-11-26T22:43:50.876Z,6.07
2017-11-26T22:46:18.743Z,6.40
2017-11-26T22:48:46.611Z,5.70
2017-11-26T22:51:14.479Z,5.07
2017-11-26T22:53:42.345Z,5.72
2017-11-26T22:56:10.213Z,6.12
2017-11-26T22:58:38.080Z,5.40
2017-11-26T23:01:05.947Z,5.90
2017-11-26T23:03:33.815Z,5.72
2017-11-26T23:06:01.685Z,5.40
2017-11-26T23:08:29.550Z,5.28
2017-11-26T23:10:57.418Z,7.03
2017-11-26T23:13:25.284Z,6.28
2017-11-26T23:15:53.151Z,6.25
2017-11-26T23:18:21.018Z,4.30
2017-11-26T23:20:48.894Z,6.18
2017-11-26T23:23:16.757Z,5.25
2017-11-26T23:25:44.621Z,5.22
2017-11-26T23:28:12.493Z,7.50
2017-11-26T23:30:40.363Z,6.43
2017-11-26T23:33:08.230Z,6.50
2017-11-26T23:35:36.095Z,6.30
2017-11-26T23:38:03.963Z,6.32
2017-11-26T23:40:31.826Z,6.05
2017-11-26T23:42:59.693Z,5.95
2017-11-26T23:45:27.562Z,5.50
2017-11-26T23:47:55.426Z,6.10
2017-11-26T23:50:23.293Z,6.32
2017-11-26T23:52:51.161Z,7.50
2017-11-26T23:55:19.028Z,6.10
2017-11-26T23:57:46.896Z,5.85
